Time;durP1;ratioP1;P1;durP2;ratioP2;P2;SDS_P1;SDS_P2;PMS_P1;PMS_P2;Temp;Humidity;BMP_temperature;BMP_pressure;BME280_temperature;BME280_humidity;BME280_pressure;Samples;Min_cycle;Max_cycle;Signal;HPM_P1;HPM_P2
2023/01/01 00:04:53;;;;;;;3.50;2.10;;;21.90;57.70;;;;;;209324;1320;25582;-49
2023/01/01 00:10:31;;;;;;;3.30;2.10;;;21.80;57.70;;;;;;209257;1314;22492;-49
2023/01/01 00:16:16;;;;;;;4.30;2.50;;;21.80;57.80;;;;;;203583;1328;10322818;-49
2023/01/01 00:21:54;;;;;;;3.90;2.20;;;21.70;57.80;;;;;;209214;1324;22532;-47
2023/01/01 00:27:49;;;;;;;4.60;2.80;;;21.70;57.70;;;;;;209081;1314;24284;-50
2023/01/01 00:33:26;;;;;;;4.10;2.50;;;21.70;57.70;;;;;;209405;1324;22575;-50
2023/01/01 00:39:03;;;;;;;4.40;2.70;;;21.70;57.70;;;;;;209267;1312;24347;-50
2023/01/01 00:44:40;;;;;;;3.10;2.30;;;21.60;57.60;;;;;;209586;1322;25491;-48
2023/01/01 00:50:17;;;;;;;3.40;2.20;;;21.60;57.70;;;;;;209282;1329;25613;-48
2023/01/01 00:55:56;;;;;;;4.10;2.90;;;21.60;57.70;;;;;;209188;1329;22497;-49
2023/01/01 01:01:33;;;;;;;3.20;2.30;;;21.60;57.70;;;;;;209213;1314;22522;-48
2023/01/01 01:07:10;;;;;;;3.00;2.20;;;21.60;57.70;;;;;;209217;1305;24348;-47
2023/01/01 01:12:48;;;;;;;3.60;2.50;;;21.60;57.70;;;;;;209221;1317;24298;-50
2023/01/01 01:18:26;;;;;;;4.20;2.20;;;21.50;57.70;;;;;;209315;1324;24316;-48
2023/01/01 01:24:06;;;;;;;4.00;2.40;;;21.50;57.80;;;;;;217922;1308;23008;-51
2023/01/01 01:29:43;;;;;;;4.10;2.40;;;21.50;57.70;;;;;;217942;1313;22160;-50
2023/01/01 01:35:20;;;;;;;4.00;2.70;;;21.50;57.70;;;;;;211687;1302;22639;-50
2023/01/01 01:40:57;;;;;;;3.90;2.60;;;21.50;58.00;;;;;;217918;1302;22183;-51
2023/01/01 01:46:45;;;;;;;3.80;2.50;;;21.60;57.50;;;;;;216140;1321;24020;-47
2023/01/01 01:52:22;;;;;;;3.50;2.30;;;21.90;56.80;;;;;;209195;1315;22495;-49
2023/01/01 01:57:59;;;;;;;3.50;2.30;;;22.20;56.20;;;;;;209097;1318;22483;-51
2023/01/01 02:03:45;;;;;;;3.30;1.90;;;22.30;55.80;;;;;;209205;1329;22494;-51
2023/01/01 02:09:22;;;;;;;3.20;2.20;;;22.40;55.50;;;;;;209099;1317;22548;-48
2023/01/01 02:15:00;;;;;;;3.10;2.10;;;22.50;55.10;;;;;;210748;1328;22528;-47
2023/01/01 02:20:51;;;;;;;4.10;2.40;;;22.70;54.90;;;;;;208928;1317;22557;-48
2023/01/01 02:26:47;;;;;;;;;;;22.70;54.80;;;;;;217232;1324;22461;-49
2023/01/01 02:32:36;;;;;;;3.10;2.20;;;22.90;54.50;;;;;;209277;1326;22645;-47
2023/01/01 02:38:22;;;;;;;4.10;2.40;;;22.90;54.40;;;;;;209035;1320;24299;-48
2023/01/01 02:43:59;;;;;;;3.40;2.20;;;23.00;54.10;;;;;;209344;1322;27587;-48
2023/01/01 02:49:36;;;;;;;3.30;2.10;;;23.10;54.10;;;;;;209297;1329;22628;-50
2023/01/01 02:55:38;;;;;;;2.70;2.10;;;23.20;53.90;;;;;;209179;1314;22498;-49
2023/01/01 03:01:25;;;;;;;2.90;2.10;;;23.20;54.20;;;;;;209314;1312;22515;-51
2023/01/01 03:07:18;;;;;;;3.20;2.00;;;23.30;53.80;;;;;;209097;1311;22928;-48
2023/01/01 03:13:05;;;;;;;4.20;2.20;;;23.20;53.90;;;;;;209643;1321;22747;-48
2023/01/01 03:19:09;;;;;;;2.90;2.20;;;23.20;54.00;;;;;;209337;1321;23930;-48
2023/01/01 03:25:04;;;;;;;2.90;2.20;;;23.10;54.30;;;;;;209232;1322;22487;-48
2023/01/01 03:30:42;;;;;;;3.20;2.30;;;23.00;55.20;;;;;;211089;1308;22538;-48
2023/01/01 03:36:29;;;;;;;3.70;2.40;;;22.90;54.70;;;;;;209152;1321;22511;-48
2023/01/01 03:42:21;;;;;;;2.90;2.10;;;22.80;55.00;;;;;;213540;1312;22794;-48
2023/01/01 03:47:58;;;;;;;3.00;2.00;;;22.70;55.10;;;;;;209110;1320;22621;-48
2023/01/01 03:54:04;;;;;;;3.90;2.30;;;22.70;55.20;;;;;;212164;1323;25574;-51
2023/01/01 03:59:56;;;;;;;3.80;2.10;;;22.60;55.40;;;;;;209019;1309;22507;-48
2023/01/01 04:05:38;;;;;;;2.80;2.10;;;22.60;55.40;;;;;;209239;1315;22553;-50
2023/01/01 04:17:20;;;;;;;3.40;2.10;;;22.40;56.00;;;;;;209265;1324;22670;-47
2023/01/01 04:22:57;;;;;;;3.80;2.20;;;22.40;55.70;;;;;;208944;1317;22567;-48
2023/01/01 04:28:34;;;;;;;3.00;2.20;;;22.40;55.90;;;;;;209103;1324;22678;-49
2023/01/01 04:34:11;;;;;;;3.10;2.00;;;22.30;55.90;;;;;;209130;1329;22529;-48
2023/01/01 04:39:48;;;;;;;3.40;2.20;;;22.30;55.90;;;;;;209176;1328;22747;-48
2023/01/01 04:45:25;;;;;;;3.10;1.90;;;22.20;56.10;;;;;;217098;1310;22180;-52
2023/01/01 04:51:07;;;;;;;3.10;2.00;;;22.20;56.20;;;;;;209449;1321;22569;-48
2023/01/01 04:56:44;;;;;;;3.40;2.00;;;22.10;56.20;;;;;;209259;1330;25585;-47
2023/01/01 05:02:21;;;;;;;2.90;1.90;;;22.10;56.30;;;;;;209170;1330;22533;-47
2023/01/01 05:07:58;;;;;;;2.60;1.90;;;22.10;56.90;;;;;;209079;1324;22616;-48
2023/01/01 05:13:35;;;;;;;2.70;1.70;;;22.00;56.40;;;;;;209088;1314;24385;-48
2023/01/01 05:19:12;;;;;;;;;;;22.00;56.40;;;;;;209180;1322;22464;-49
2023/01/01 05:24:49;;;;;;;3.00;2.20;;;21.90;56.40;;;;;;209386;1321;22862;-49
2023/01/01 05:30:26;;;;;;;2.60;1.80;;;22.00;56.40;;;;;;209199;1309;22555;-50
2023/01/01 05:36:03;;;;;;;2.30;1.50;;;21.90;56.30;;;;;;211886;1312;22503;-49
2023/01/01 05:41:40;;;;;;;2.50;1.80;;;21.90;56.80;;;;;;209023;1315;26699;-48
2023/01/01 05:47:17;;;;;;;2.60;2.00;;;21.80;56.40;;;;;;209177;1316;22494;-48
2023/01/01 05:52:58;;;;;;;3.30;2.00;;;21.80;56.40;;;;;;209362;1329;25228;-49
2023/01/01 05:58:37;;;;;;;3.10;1.80;;;21.80;56.50;;;;;;209326;1321;22517;-49
2023/01/01 06:04:14;;;;;;;2.80;2.00;;;21.80;56.40;;;;;;217707;1309;22502;-48
2023/01/01 06:09:51;;;;;;;2.40;1.80;;;21.70;56.40;;;;;;209284;1314;22572;-47
2023/01/01 06:15:28;;;;;;;2.50;1.80;;;21.80;56.40;;;;;;209145;1324;22537;-47
2023/01/01 06:21:14;;;;;;;2.40;1.40;;;21.70;56.30;;;;;;209273;1294;22522;-48
2023/01/01 06:26:51;;;;;;;3.60;2.20;;;21.70;56.50;;;;;;217947;1322;23313;-52
2023/01/01 06:32:28;;;;;;;3.10;2.00;;;21.60;56.50;;;;;;217284;1328;22137;-48
2023/01/01 06:38:05;;;;;;;3.40;1.90;;;21.60;56.40;;;;;;212579;1308;24440;-49
2023/01/01 06:43:43;;;;;;;2.50;1.80;;;21.70;56.40;;;;;;209085;1308;22502;-48
2023/01/01 06:49:20;;;;;;;2.80;1.80;;;21.60;56.40;;;;;;209129;1317;22519;-47
2023/01/01 06:54:57;;;;;;;2.50;1.70;;;21.60;56.40;;;;;;215571;1329;22505;-47
2023/01/01 07:00:34;;;;;;;2.90;1.90;;;21.50;56.40;;;;;;209031;1324;22502;-48
2023/01/01 07:06:12;;;;;;;2.60;1.80;;;21.50;56.40;;;;;;209017;1309;24285;-48
2023/01/01 07:11:49;;;;;;;2.90;2.00;;;21.50;56.50;;;;;;209273;1317;23568;-51
2023/01/01 07:17:26;;;;;;;2.50;1.70;;;21.50;56.60;;;;;;209176;1321;22499;-50
2023/01/01 07:23:03;;;;;;;2.80;1.70;;;21.50;56.50;;;;;;209093;1324;22633;-49
2023/01/01 07:28:40;;;;;;;3.20;1.90;;;21.50;56.50;;;;;;209094;1314;22498;-50
2023/01/01 07:34:22;;;;;;;2.60;1.80;;;21.90;56.30;;;;;;209263;1311;22514;-48
2023/01/01 07:39:59;;;;;;;2.10;1.40;;;22.20;55.60;;;;;;209311;1321;22655;-48
2023/01/01 07:45:37;;;;;;;2.60;1.70;;;22.40;54.60;;;;;;209072;1310;23102;-48
2023/01/01 07:51:14;;;;;;;2.30;1.50;;;22.60;54.30;;;;;;209245;1330;22583;-47
2023/01/01 07:56:51;;;;;;;3.00;2.10;;;22.70;54.00;;;;;;209287;1330;22490;-48
2023/01/01 08:02:28;;;;;;;2.40;1.60;;;22.80;53.70;;;;;;209432;1311;22560;-47
2023/01/01 08:08:05;;;;;;;2.30;1.40;;;22.90;53.50;;;;;;209247;1308;24368;-48
2023/01/01 08:13:42;;;;;;;2.90;1.70;;;23.00;53.20;;;;;;209280;1324;22570;-49
2023/01/01 08:19:19;;;;;;;2.50;1.60;;;23.20;53.00;;;;;;209104;1324;22550;-48
2023/01/01 08:24:56;;;;;;;3.20;1.80;;;23.30;52.70;;;;;;217224;1325;22147;-48
2023/01/01 08:30:33;;;;;;;2.40;1.70;;;23.40;52.60;;;;;;211269;1320;25358;-47
2023/01/01 08:36:10;;;;;;;2.90;1.80;;;23.60;52.30;;;;;;209280;1309;22751;-48
2023/01/01 08:41:47;;;;;;;3.20;2.00;;;23.70;52.20;;;;;;209319;1314;22624;-51
2023/01/01 08:47:27;;;;;;;2.50;1.50;;;23.70;52.40;;;;;;209146;1314;23012;-49
2023/01/01 08:53:04;;;;;;;2.50;2.00;;;23.50;52.70;;;;;;217023;1321;23669;-48
2023/01/01 08:58:43;;;;;;;3.20;2.30;;;23.40;52.90;;;;;;214168;1319;23011;-50
2023/01/01 09:04:20;;;;;;;2.30;1.60;;;23.40;53.50;;;;;;209421;1326;25576;-49
2023/01/01 09:09:57;;;;;;;2.20;1.70;;;23.30;53.30;;;;;;209241;1326;22487;-50
2023/01/01 09:15:34;;;;;;;2.30;1.60;;;23.30;53.50;;;;;;209070;1315;22853;-48
2023/01/01 09:21:11;;;;;;;2.80;1.70;;;23.30;53.70;;;;;;209224;1303;22617;-50
2023/01/01 09:26:48;;;;;;;3.30;1.70;;;23.20;53.70;;;;;;209396;1318;22621;-48
2023/01/01 09:32:25;;;;;;;2.20;1.50;;;23.20;54.30;;;;;;209268;1316;22490;-47
2023/01/01 09:38:03;;;;;;;2.40;1.70;;;23.10;53.90;;;;;;209305;1322;22602;-49
2023/01/01 09:44:11;;;;;;;2.00;1.30;;;23.10;54.10;;;;;;209095;1321;25001;-48
2023/01/01 09:49:51;;;;;;;2.20;1.40;;;23.10;54.10;;;;;;209333;1314;24263;-48
2023/01/01 09:55:51;;;;;;;2.80;1.60;;;23.10;54.20;;;;;;211236;1320;22495;-48
2023/01/01 10:01:39;;;;;;;2.30;1.60;;;23.10;54.20;;;;;;209307;1329;23944;-47
2023/01/01 10:07:30;;;;;;;2.30;1.50;;;23.10;54.30;;;;;;209443;1317;22796;-48
2023/01/01 10:13:13;;;;;;;;;;;23.10;54.40;;;;;;209293;1329;22462;-48
2023/01/01 10:18:53;;;;;;;2.50;1.60;;;23.00;54.50;;;;;;209152;1300;24296;-47
2023/01/01 10:24:49;;;;;;;2.40;1.50;;;23.00;54.50;;;;;;209292;1311;22485;-48
2023/01/01 10:30:28;;;;;;;2.60;1.70;;;23.00;55.00;;;;;;209356;1312;22972;-47
2023/01/01 10:36:06;;;;;;;2.10;1.40;;;23.00;54.70;;;;;;209197;1321;22556;-47
2023/01/01 10:41:43;;;;;;;3.10;1.50;;;23.00;54.60;;;;;;209238;1325;22488;-49
2023/01/01 10:47:33;;;;;;;2.30;1.50;;;23.00;54.60;;;;;;209457;1317;24961;-49
2023/01/01 10:53:10;;;;;;;2.60;1.50;;;23.00;54.60;;;;;;209225;1321;22707;-50
2023/01/01 10:58:54;;;;;;;2.40;1.40;;;23.00;54.60;;;;;;209136;1330;22554;-50
2023/01/01 11:04:31;;;;;;;2.70;1.60;;;23.10;54.60;;;;;;213274;1329;25098;-47
2023/01/01 11:10:11;;;;;;;2.50;1.50;;;23.10;54.60;;;;;;214398;1323;25605;-47
2023/01/01 11:15:48;;;;;;;2.60;1.50;;;23.10;54.60;;;;;;209172;1325;22678;-47
2023/01/01 11:21:27;;;;;;;1.90;1.30;;;23.10;54.60;;;;;;209057;1330;22574;-47
2023/01/01 11:27:29;;;;;;;2.40;1.50;;;23.10;54.70;;;;;;209028;1324;22631;-47
2023/01/01 11:33:09;;;;;;;4.50;1.70;;;23.10;54.70;;;;;;209083;1316;22516;-50
2023/01/01 11:38:46;;;;;;;2.40;1.40;;;23.10;54.70;;;;;;209096;1308;22490;-48
2023/01/01 11:44:46;;;;;;;4.50;1.60;;;23.10;55.20;;;;;;209155;1329;22494;-49
2023/01/01 11:50:22;;;;;;;2.20;1.40;;;23.00;54.70;;;;;;210022;1312;25877;-48
2023/01/01 11:56:20;;;;;;;2.40;1.60;;;23.10;54.80;;;;;;217905;1321;22888;-48
2023/01/01 12:02:04;;;;;;;2.10;1.40;;;23.10;54.80;;;;;;212429;1314;22886;-49
2023/01/01 12:07:44;;;;;;;2.50;1.40;;;23.20;54.70;;;;;;209302;1320;25114;-49
2023/01/01 12:13:27;;;;;;;2.40;1.50;;;23.20;54.70;;;;;;201938;1311;10315444;-48
2023/01/01 12:19:14;;;;;;;1.90;1.40;;;23.10;54.70;;;;;;209064;1318;22494;-47
2023/01/01 12:24:53;;;;;;;2.20;1.40;;;23.10;54.70;;;;;;209172;1314;22620;-50
2023/01/01 12:30:34;;;;;;;2.50;1.50;;;23.10;54.70;;;;;;209788;1309;22501;-47
2023/01/01 12:36:32;;;;;;;2.30;1.60;;;23.10;54.50;;;;;;209749;1318;22496;-50
2023/01/01 12:42:25;;;;;;;2.70;1.70;;;23.10;54.70;;;;;;209245;1311;24425;-49
2023/01/01 12:48:40;;;;;;;2.60;1.40;;;23.10;54.80;;;;;;209113;1316;22490;-48
2023/01/01 12:54:36;;;;;;;3.30;1.50;;;23.10;55.10;;;;;;209349;1321;22490;-49
2023/01/01 13:00:25;;;;;;;2.20;1.60;;;23.00;54.80;;;;;;209383;1308;24419;-48
2023/01/01 13:06:04;;;;;;;2.40;1.60;;;23.00;54.80;;;;;;218023;1313;22114;-50
2023/01/01 13:11:41;;;;;;;2.10;1.40;;;23.00;55.00;;;;;;217271;1312;22948;-49
2023/01/01 13:17:35;;;;;;;2.60;1.60;;;23.00;54.90;;;;;;213390;1323;24285;-49
2023/01/01 13:23:39;;;;;;;2.70;1.60;;;23.00;54.80;;;;;;211735;1321;22607;-48
2023/01/01 13:29:18;;;;;;;2.70;1.70;;;23.00;54.90;;;;;;209165;1326;23994;-48
2023/01/01 13:35:06;;;;;;;1.60;1.10;;;22.90;54.90;;;;;;209270;1314;22536;-48
2023/01/01 13:40:56;;;;;;;2.40;1.60;;;22.90;55.10;;;;;;209714;1304;22860;-49
2023/01/01 13:46:50;;;;;;;2.80;1.60;;;22.80;55.10;;;;;;218006;1301;22108;-51
2023/01/01 13:52:56;;;;;;;2.50;1.60;;;22.80;55.10;;;;;;209633;1330;22507;-48
2023/01/01 13:58:53;;;;;;;2.70;1.50;;;22.80;55.10;;;;;;214462;1307;24579;-47
2023/01/01 14:04:52;;;;;;;2.30;1.50;;;22.70;55.80;;;;;;209281;1322;22513;-47
2023/01/01 14:10:39;;;;;;;2.30;1.40;;;22.70;55.10;;;;;;209280;1322;24262;-47
2023/01/01 14:16:18;;;;;;;2.90;1.60;;;22.70;55.20;;;;;;210970;1310;22600;-47
2023/01/01 14:21:56;;;;;;;2.60;1.60;;;22.70;55.60;;;;;;209209;1318;22500;-49
2023/01/01 14:27:35;;;;;;;2.10;1.40;;;22.60;55.30;;;;;;209502;1324;22503;-50
2023/01/01 14:33:27;;;;;;;2.40;1.50;;;22.60;55.40;;;;;;209273;1330;25405;-47
2023/01/01 14:39:05;;;;;;;1.90;1.40;;;22.50;55.50;;;;;;215206;1329;25604;-48
2023/01/01 14:44:45;;;;;;;2.30;1.50;;;22.50;55.50;;;;;;210167;1326;25388;-51
2023/01/01 14:50:34;;;;;;;2.40;1.60;;;22.50;55.50;;;;;;213200;1308;22697;-51
2023/01/01 14:56:12;;;;;;;1.90;1.40;;;22.50;56.00;;;;;;209295;1315;22499;-49
2023/01/01 15:01:50;;;;;;;2.70;1.80;;;22.50;55.20;;;;;;209022;1308;24015;-48
2023/01/01 15:07:36;;;;;;;3.00;1.60;;;22.40;55.60;;;;;;209076;1328;22489;-49
2023/01/01 15:13:13;;;;;;;2.80;1.70;;;22.40;55.60;;;;;;209023;1323;22513;-49
2023/01/01 15:18:52;;;;;;;2.30;1.30;;;22.40;56.10;;;;;;209235;1314;22548;-46
2023/01/01 15:24:32;;;;;;;2.40;1.50;;;22.40;55.60;;;;;;209142;1312;22614;-51
2023/01/01 15:30:12;;;;;;;2.80;1.70;;;22.40;55.80;;;;;;209346;1315;22887;-49
2023/01/01 15:35:59;;;;;;;;;;;22.30;55.70;;;;;;210941;1324;25202;-48
2023/01/01 15:41:55;;;;;;;3.30;1.70;;;22.30;56.00;;;;;;209265;1330;22503;-47
2023/01/01 15:47:33;;;;;;;3.10;1.80;;;22.30;56.20;;;;;;210100;1327;22531;-50
2023/01/01 15:53:27;;;;;;;2.70;1.80;;;22.20;55.90;;;;;;209339;1314;23512;-48
2023/01/01 15:59:08;;;;;;;2.10;1.40;;;22.20;55.90;;;;;;209096;1328;23421;-48
2023/01/01 16:04:49;;;;;;;1.80;1.20;;;22.20;55.90;;;;;;209271;1327;23795;-51
2023/01/01 16:10:27;;;;;;;2.40;1.40;;;22.20;55.90;;;;;;209216;1308;22504;-51
2023/01/01 16:16:06;;;;;;;2.50;1.50;;;22.10;55.60;;;;;;209092;1324;22612;-48
2023/01/01 16:21:43;;;;;;;2.40;1.60;;;22.10;55.90;;;;;;209171;1318;22479;-48
2023/01/01 16:27:20;;;;;;;2.80;1.90;;;22.10;56.00;;;;;;209039;1321;22690;-49
2023/01/01 16:32:57;;;;;;;2.40;1.40;;;22.10;56.00;;;;;;209040;1323;22490;-47
2023/01/01 16:38:36;;;;;;;2.40;1.60;;;22.00;55.90;;;;;;209306;1318;22509;-49
2023/01/01 16:44:14;;;;;;;2.30;1.60;;;22.10;56.00;;;;;;213007;1322;24273;-47
2023/01/01 16:49:51;;;;;;;2.60;1.50;;;22.00;56.00;;;;;;209236;1330;26283;-48
2023/01/01 16:55:28;;;;;;;;;;;22.00;56.00;;;;;;209195;1318;22463;-47
2023/01/01 17:01:06;;;;;;;2.60;1.60;;;22.00;56.50;;;;;;209317;1327;22481;-47
2023/01/01 17:06:44;;;;;;;2.90;1.80;;;22.00;56.10;;;;;;209209;1303;24316;-48
2023/01/01 17:12:22;;;;;;;2.70;1.70;;;21.90;56.00;;;;;;217066;1322;25945;-50
2023/01/01 17:17:59;;;;;;;3.00;1.90;;;21.90;56.00;;;;;;209590;1318;22524;-48
2023/01/01 17:23:43;;;;;;;4.40;1.70;;;21.90;55.90;;;;;;210679;1306;23854;-48
2023/01/01 17:29:20;;;;;;;4.70;1.80;;;21.90;56.30;;;;;;209683;1314;24259;-48
2023/01/01 17:34:58;;;;;;;4.50;1.90;;;22.00;56.20;;;;;;209839;1318;22486;-47
2023/01/01 17:40:35;;;;;;;7.20;2.20;;;22.00;56.30;;;;;;214428;1315;25557;-48
2023/01/01 17:46:21;;;;;;;5.40;1.80;;;22.00;56.40;;;;;;217837;1308;22211;-51
2023/01/01 17:52:00;;;;;;;6.30;1.80;;;21.90;56.20;;;;;;212916;1330;24307;-47
2023/01/01 17:57:37;;;;;;;5.90;2.10;;;21.90;56.40;;;;;;217894;1320;22268;-48
2023/01/01 18:03:23;;;;;;;7.10;2.70;;;21.90;56.80;;;;;;215277;1328;27396;-49
2023/01/01 18:09:04;;;;;;;4.20;2.30;;;21.90;56.40;;;;;;217691;1314;22157;-49
2023/01/01 18:14:42;;;;;;;6.50;2.70;;;22.00;56.30;;;;;;217846;1309;22632;-47
2023/01/01 18:20:23;;;;;;;6.50;2.40;;;21.90;56.20;;;;;;210290;1322;24429;-49
2023/01/01 18:26:05;;;;;;;4.70;2.80;;;21.90;56.10;;;;;;217758;1322;22228;-49
2023/01/01 18:31:42;;;;;;;3.90;2.60;;;21.90;56.10;;;;;;217647;1322;22915;-50
2023/01/01 18:37:22;;;;;;;7.60;3.50;;;21.90;56.10;;;;;;217903;1322;22873;-51
2023/01/01 20:10:29;;;;;;;4.10;3.60;;;22.10;60.00;;;;;;208707;1332;546015;-57
2023/01/01 20:16:12;;;;;;;8.50;3.90;;;22.20;56.00;;;;;;215058;1302;22443;-57
2023/01/01 20:22:11;;;;;;;6.90;4.00;;;22.00;55.90;;;;;;212008;1302;10140000;-55
2023/01/01 20:33:48;;;;;;;5.30;4.30;;;21.80;55.90;;;;;;221647;1299;22193;-55
2023/01/01 20:39:28;;;;;;;9.60;4.70;;;21.90;56.60;;;;;;213784;1283;23178;-55
2023/01/01 20:45:04;;;;;;;8.30;4.90;;;21.80;56.60;;;;;;216181;1299;25410;-55
2023/01/01 20:50:23;;;;;;;10.40;4.70;;;21.80;56.60;;;;;;214858;1283;24308;-56
2023/01/01 20:55:31;;;;;;;9.00;4.80;;;21.80;57.10;;;;;;213891;1293;22464;-56
2023/01/01 21:00:37;;;;;;;8.80;5.30;;;21.80;57.20;;;;;;213590;1292;24253;-56
2023/01/01 21:05:44;;;;;;;9.30;4.70;;;21.70;58.00;;;;;;213388;1305;25360;-58
2023/01/01 21:10:49;;;;;;;9.00;4.80;;;21.70;57.50;;;;;;213866;1285;23848;-59
2023/01/01 21:16:15;;;;;;;7.30;4.30;;;21.70;57.40;;;;;;213437;1296;22715;-58
2023/01/01 21:21:34;;;;;;;9.20;4.70;;;21.70;57.50;;;;;;213668;1306;25407;-57
2023/01/01 21:26:40;;;;;;;7.00;4.40;;;21.70;57.40;;;;;;213644;1306;23325;-59
2023/01/01 21:31:49;;;;;;;6.30;4.00;;;21.70;57.70;;;;;;213720;1299;25315;-55
2023/01/01 21:37:04;;;;;;;6.30;4.40;;;21.70;57.30;;;;;;213799;1301;24420;-58
2023/01/01 21:42:22;;;;;;;9.40;4.80;;;21.60;58.10;;;;;;213598;1301;24397;-57
2023/01/01 21:47:27;;;;;;;12.80;5.40;;;21.60;57.90;;;;;;213574;1291;25330;-57
2023/01/01 21:52:33;;;;;;;13.10;4.60;;;21.60;60.10;;;;;;213901;1290;22981;-57
2023/01/01 21:57:37;;;;;;;13.80;5.20;;;21.60;59.80;;;;;;213805;1302;22678;-57
2023/01/01 22:02:45;;;;;;;11.90;5.30;;;21.60;62.70;;;;;;213970;1288;22450;-58
2023/01/01 22:07:50;;;;;;;12.70;5.10;;;21.60;65.30;;;;;;213808;1297;24257;-58
2023/01/01 22:13:01;;;;;;;;;;;21.60;63.10;;;;;;213574;1291;26608;-58
2023/01/01 22:18:23;;;;;;;10.10;4.50;;;21.60;62.80;;;;;;213800;1287;25295;-58
2023/01/01 22:23:39;;;;;;;10.90;4.80;;;21.60;62.90;;;;;;213753;1291;24388;-57
2023/01/01 22:28:46;;;;;;;7.30;5.00;;;21.60;62.60;;;;;;215762;1294;22526;-57
2023/01/01 22:33:56;;;;;;;9.00;5.30;;;21.60;62.10;;;;;;214192;1299;22709;-56
2023/01/01 22:39:02;;;;;;;11.30;4.60;;;21.60;62.50;;;;;;213558;1306;22458;-59
2023/01/01 22:44:06;;;;;;;7.40;4.30;;;21.60;62.60;;;;;;213544;1290;22493;-57
2023/01/01 22:49:37;;;;;;;8.40;4.30;;;21.50;62.50;;;;;;213719;1297;22529;-58
2023/01/01 22:54:41;;;;;;;9.00;4.30;;;21.50;62.10;;;;;;213679;1303;22515;-58
2023/01/01 22:59:46;;;;;;;9.40;4.80;;;21.50;62.50;;;;;;213929;1287;24256;-57
2023/01/01 23:04:50;;;;;;;6.30;4.40;;;21.50;61.80;;;;;;213744;1305;23328;-58
2023/01/01 23:09:56;;;;;;;7.50;4.60;;;21.50;62.30;;;;;;213671;1298;22596;-57
2023/01/01 23:20:43;;;;;;;8.40;4.40;;;21.50;62.20;;;;;;213036;1300;22494;-58
2023/01/01 23:25:48;;;;;;;6.40;4.30;;;21.50;63.00;;;;;;213701;1293;22525;-57
2023/01/01 23:30:53;;;;;;;7.00;4.90;;;21.50;62.60;;;;;;215068;1299;24315;-57
2023/01/01 23:35:57;;;;;;;5.00;4.20;;;21.50;62.70;;;;;;214090;1285;23264;-58
2023/01/01 23:41:01;;;;;;;6.80;4.50;;;21.50;62.70;;;;;;214032;1294;22588;-56
2023/01/01 23:46:05;;;;;;;6.10;4.80;;;21.50;62.70;;;;;;214063;1301;24468;-58
2023/01/01 23:51:11;;;;;;;14.60;4.70;;;21.40;62.40;;;;;;214220;1287;22468;-58
2023/01/01 23:56:15;;;;;;;4.90;4.30;;;21.50;62.30;;;;;;214002;1291;22465;-57
